Terminal Aerodrome Forecast
Issued by NWS Shreveport, LA

Home | Current Version | Previous Version | Text Only | Print | Product List | Glossary On
Versions: 1 2 3 4 5 6 7 8 9 10 11 12 13 14 15 16 17 18
000
FTUS44 KSHV 171500 AAB
TAFLFK
TAF AMD
KLFK 171505Z 1715/1812 09003KT 2SM BR OVC002
      TEMPO 1716/1717 5SM BR BKN010
     FM171700 17005KT P6SM BKN015
     FM171900 18006KT P6SM VCTS BKN035CB
     FM180000 VRB03KT P6SM BKN120
     FM180700 VRB03KT 4SM BR BKN020
      TEMPO 1809/1812 1SM BR OVC010=

USA.gov is the U.S. government's official web portal to all federal, state and local government web resources and services.